sensor_id;sensor_type;location;lat;lon;timestamp;P1;durP1;ratioP1;P2;durP2;ratioP2
29358;SDS011;16347;53.232;6.556;2023-04-24T00:00:57;3.08;;;2.22;;
29358;SDS011;16347;53.232;6.556;2023-04-24T00:03:28;6.10;;;2.40;;
29358;SDS011;16347;53.232;6.556;2023-04-24T00:05:56;3.53;;;2.25;;
29358;SDS011;16347;53.232;6.556;2023-04-24T00:08:25;3.22;;;2.20;;
29358;SDS011;16347;53.232;6.556;2023-04-24T00:10:53;3.85;;;2.38;;
29358;SDS011;16347;53.232;6.556;2023-04-24T00:13:22;2.65;;;2.10;;
29358;SDS011;16347;53.232;6.556;2023-04-24T00:15:51;4.03;;;2.53;;
29358;SDS011;16347;53.232;6.556;2023-04-24T00:18:19;5.53;;;3.45;;
29358;SDS011;16347;53.232;6.556;2023-04-24T00:20:46;6.95;;;4.38;;
29358;SDS011;16347;53.232;6.556;2023-04-24T00:23:14;6.10;;;4.68;;
29358;SDS011;16347;53.232;6.556;2023-04-24T00:25:42;8.15;;;4.50;;
29358;SDS011;16347;53.232;6.556;2023-04-24T00:28:10;7.32;;;4.88;;
29358;SDS011;16347;53.232;6.556;2023-04-24T00:30:38;7.80;;;4.53;;
29358;SDS011;16347;53.232;6.556;2023-04-24T00:33:07;7.40;;;4.93;;
29358;SDS011;16347;53.232;6.556;2023-04-24T00:35:36;5.40;;;3.95;;
29358;SDS011;16347;53.232;6.556;2023-04-24T00:38:03;6.30;;;4.30;;
29358;SDS011;16347;53.232;6.556;2023-04-24T00:40:31;6.43;;;3.70;;
29358;SDS011;16347;53.232;6.556;2023-04-24T00:42:59;4.43;;;3.33;;
29358;SDS011;16347;53.232;6.556;2023-04-24T00:45:27;6.93;;;3.20;;
29358;SDS011;16347;53.232;6.556;2023-04-24T00:47:57;3.90;;;2.53;;
29358;SDS011;16347;53.232;6.556;2023-04-24T00:50:27;2.22;;;1.80;;
29358;SDS011;16347;53.232;6.556;2023-04-24T00:52:55;3.25;;;1.63;;
29358;SDS011;16347;53.232;6.556;2023-04-24T00:55:24;2.33;;;1.60;;
29358;SDS011;16347;53.232;6.556;2023-04-24T00:57:53;2.40;;;1.30;;
29358;SDS011;16347;53.232;6.556;2023-04-24T01:00:21;2.65;;;1.30;;
29358;SDS011;16347;53.232;6.556;2023-04-24T01:02:49;1.92;;;1.40;;
29358;SDS011;16347;53.232;6.556;2023-04-24T01:05:19;1.52;;;0.80;;
29358;SDS011;16347;53.232;6.556;2023-04-24T01:07:49;1.25;;;1.15;;
29358;SDS011;16347;53.232;6.556;2023-04-24T01:10:17;4.38;;;1.42;;
29358;SDS011;16347;53.232;6.556;2023-04-24T01:12:46;2.33;;;1.27;;
29358;SDS011;16347;53.232;6.556;2023-04-24T01:15:15;1.13;;;1.02;;
29358;SDS011;16347;53.232;6.556;2023-04-24T01:17:43;0.98;;;0.90;;
29358;SDS011;16347;53.232;6.556;2023-04-24T01:20:13;1.65;;;1.15;;
29358;SDS011;16347;53.232;6.556;2023-04-24T01:22:43;1.17;;;1.08;;
29358;SDS011;16347;53.232;6.556;2023-04-24T01:25:11;3.20;;;1.13;;
29358;SDS011;16347;53.232;6.556;2023-04-24T01:27:39;1.77;;;1.30;;
29358;SDS011;16347;53.232;6.556;2023-04-24T01:30:07;1.27;;;1.17;;
29358;SDS011;16347;53.232;6.556;2023-04-24T01:32:36;0.82;;;0.82;;
29358;SDS011;16347;53.232;6.556;2023-04-24T01:35:06;3.10;;;0.85;;
29358;SDS011;16347;53.232;6.556;2023-04-24T01:37:35;0.70;;;0.70;;
29358;SDS011;16347;53.232;6.556;2023-04-24T01:40:05;0.55;;;0.55;;
29358;SDS011;16347;53.232;6.556;2023-04-24T01:42:34;3.13;;;0.90;;
29358;SDS011;16347;53.232;6.556;2023-04-24T01:45:03;1.48;;;1.23;;
29358;SDS011;16347;53.232;6.556;2023-04-24T01:47:33;1.20;;;1.10;;
29358;SDS011;16347;53.232;6.556;2023-04-24T01:50:02;1.88;;;1.00;;
29358;SDS011;16347;53.232;6.556;2023-04-24T01:52:31;0.93;;;0.93;;
29358;SDS011;16347;53.232;6.556;2023-04-24T01:54:59;1.15;;;1.05;;
29358;SDS011;16347;53.232;6.556;2023-04-24T01:57:29;1.20;;;1.10;;
29358;SDS011;16347;53.232;6.556;2023-04-24T01:59:58;1.40;;;1.17;;
29358;SDS011;16347;53.232;6.556;2023-04-24T02:02:27;1.65;;;1.55;;
29358;SDS011;16347;53.232;6.556;2023-04-24T02:04:56;1.40;;;1.30;;
29358;SDS011;16347;53.232;6.556;2023-04-24T02:07:24;2.55;;;1.40;;
29358;SDS011;16347;53.232;6.556;2023-04-24T02:09:52;1.77;;;1.67;;
29358;SDS011;16347;53.232;6.556;2023-04-24T02:12:21;1.50;;;1.40;;
29358;SDS011;16347;53.232;6.556;2023-04-24T02:14:52;3.30;;;1.60;;
29358;SDS011;16347;53.232;6.556;2023-04-24T02:17:19;2.25;;;2.05;;
29358;SDS011;16347;53.232;6.556;2023-04-24T02:19:47;2.08;;;1.88;;
29358;SDS011;16347;53.232;6.556;2023-04-24T02:22:15;3.97;;;2.05;;
29358;SDS011;16347;53.232;6.556;2023-04-24T02:24:43;2.30;;;2.08;;
29358;SDS011;16347;53.232;6.556;2023-04-24T02:27:14;3.83;;;2.30;;
29358;SDS011;16347;53.232;6.556;2023-04-24T02:29:42;7.10;;;2.30;;
29358;SDS011;16347;53.232;6.556;2023-04-24T02:32:12;2.80;;;2.30;;
29358;SDS011;16347;53.232;6.556;2023-04-24T02:34:42;3.83;;;2.67;;
29358;SDS011;16347;53.232;6.556;2023-04-24T02:37:11;2.90;;;2.60;;
29358;SDS011;16347;53.232;6.556;2023-04-24T02:39:39;3.08;;;2.67;;
29358;SDS011;16347;53.232;6.556;2023-04-24T02:42:07;3.40;;;3.00;;
29358;SDS011;16347;53.232;6.556;2023-04-24T02:44:36;3.20;;;2.90;;
29358;SDS011;16347;53.232;6.556;2023-04-24T02:47:04;5.00;;;3.10;;
29358;SDS011;16347;53.232;6.556;2023-04-24T02:49:33;3.55;;;3.25;;
29358;SDS011;16347;53.232;6.556;2023-04-24T02:52:00;3.63;;;3.08;;
29358;SDS011;16347;53.232;6.556;2023-04-24T02:54:28;3.55;;;3.25;;
29358;SDS011;16347;53.232;6.556;2023-04-24T02:56:56;5.85;;;3.80;;
29358;SDS011;16347;53.232;6.556;2023-04-24T02:59:24;5.85;;;3.88;;
29358;SDS011;16347;53.232;6.556;2023-04-24T03:01:53;3.80;;;3.40;;
29358;SDS011;16347;53.232;6.556;2023-04-24T03:04:22;5.57;;;4.30;;
29358;SDS011;16347;53.232;6.556;2023-04-24T03:06:51;3.90;;;3.50;;
29358;SDS011;16347;53.232;6.556;2023-04-24T03:09:21;5.07;;;3.88;;
29358;SDS011;16347;53.232;6.556;2023-04-24T03:11:49;4.82;;;4.32;;
29358;SDS011;16347;53.232;6.556;2023-04-24T03:14:17;6.00;;;4.43;;
29358;SDS011;16347;53.232;6.556;2023-04-24T03:16:45;5.65;;;4.63;;
29358;SDS011;16347;53.232;6.556;2023-04-24T03:19:13;6.25;;;5.10;;
29358;SDS011;16347;53.232;6.556;2023-04-24T03:21:53;7.00;;;5.43;;
29358;SDS011;16347;53.232;6.556;2023-04-24T03:24:21;5.55;;;5.00;;
29358;SDS011;16347;53.232;6.556;2023-04-24T03:26:49;5.68;;;4.88;;
29358;SDS011;16347;53.232;6.556;2023-04-24T03:29:45;6.70;;;5.90;;
29358;SDS011;16347;53.232;6.556;2023-04-24T03:32:14;6.35;;;5.75;;
29358;SDS011;16347;53.232;6.556;2023-04-24T03:34:42;6.85;;;5.72;;
29358;SDS011;16347;53.232;6.556;2023-04-24T03:37:14;7.32;;;6.43;;
29358;SDS011;16347;53.232;6.556;2023-04-24T03:39:49;6.80;;;6.10;;
29358;SDS011;16347;53.232;6.556;2023-04-24T03:42:20;7.65;;;6.38;;
29358;SDS011;16347;53.232;6.556;2023-04-24T03:44:51;7.40;;;6.20;;
29358;SDS011;16347;53.232;6.556;2023-04-24T03:47:23;8.38;;;6.97;;
29358;SDS011;16347;53.232;6.556;2023-04-24T03:49:53;10.07;;;7.95;;
29358;SDS011;16347;53.232;6.556;2023-04-24T03:52:23;8.48;;;7.15;;
29358;SDS011;16347;53.232;6.556;2023-04-24T03:54:51;10.02;;;8.15;;
29358;SDS011;16347;53.232;6.556;2023-04-24T03:57:19;9.85;;;8.48;;
29358;SDS011;16347;53.232;6.556;2023-04-24T04:00:00;9.95;;;8.55;;
29358;SDS011;16347;53.232;6.556;2023-04-24T04:02:39;9.98;;;8.40;;
29358;SDS011;16347;53.232;6.556;2023-04-24T04:05:09;9.68;;;8.68;;
29358;SDS011;16347;53.232;6.556;2023-04-24T04:07:38;16.13;;;8.98;;
29358;SDS011;16347;53.232;6.556;2023-04-24T04:10:07;11.60;;;8.88;;
29358;SDS011;16347;53.232;6.556;2023-04-24T04:12:36;11.68;;;8.98;;
29358;SDS011;16347;53.232;6.556;2023-04-24T04:15:04;16.33;;;9.27;;
29358;SDS011;16347;53.232;6.556;2023-04-24T04:17:33;11.48;;;8.80;;
29358;SDS011;16347;53.232;6.556;2023-04-24T04:20:04;15.93;;;9.35;;
29358;SDS011;16347;53.232;6.556;2023-04-24T04:22:38;11.88;;;9.60;;
29358;SDS011;16347;53.232;6.556;2023-04-24T04:25:13;12.48;;;8.55;;
29358;SDS011;16347;53.232;6.556;2023-04-24T04:27:42;12.55;;;8.48;;
29358;SDS011;16347;53.232;6.556;2023-04-24T04:30:12;13.80;;;8.82;;
29358;SDS011;16347;53.232;6.556;2023-04-24T04:32:52;14.73;;;9.57;;
29358;SDS011;16347;53.232;6.556;2023-04-24T04:35:20;9.35;;;7.47;;
29358;SDS011;16347;53.232;6.556;2023-04-24T04:37:52;11.18;;;8.60;;
29358;SDS011;16347;53.232;6.556;2023-04-24T04:40:29;8.73;;;7.40;;
29358;SDS011;16347;53.232;6.556;2023-04-24T04:43:01;8.27;;;7.10;;
29358;SDS011;16347;53.232;6.556;2023-04-24T04:45:37;9.30;;;7.40;;
29358;SDS011;16347;53.232;6.556;2023-04-24T04:48:22;8.30;;;7.03;;
29358;SDS011;16347;53.232;6.556;2023-04-24T04:50:51;10.85;;;8.05;;
29358;SDS011;16347;53.232;6.556;2023-04-24T04:53:22;7.38;;;6.03;;
29358;SDS011;16347;53.232;6.556;2023-04-24T04:55:51;8.55;;;7.30;;
29358;SDS011;16347;53.232;6.556;2023-04-24T04:58:26;9.88;;;7.32;;
29358;SDS011;16347;53.232;6.556;2023-04-24T05:00:57;9.95;;;7.25;;
29358;SDS011;16347;53.232;6.556;2023-04-24T05:03:30;5.97;;;5.17;;
29358;SDS011;16347;53.232;6.556;2023-04-24T05:06:03;7.10;;;5.40;;
29358;SDS011;16347;53.232;6.556;2023-04-24T05:08:37;7.85;;;4.53;;
29358;SDS011;16347;53.232;6.556;2023-04-24T05:13:38;6.45;;;4.60;;
29358;SDS011;16347;53.232;6.556;2023-04-24T05:16:15;5.57;;;4.45;;
29358;SDS011;16347;53.232;6.556;2023-04-24T05:18:44;6.43;;;3.92;;
29358;SDS011;16347;53.232;6.556;2023-04-24T05:21:14;5.22;;;3.90;;
29358;SDS011;16347;53.232;6.556;2023-04-24T05:23:47;6.70;;;3.92;;
29358;SDS011;16347;53.232;6.556;2023-04-24T05:26:23;4.35;;;3.25;;
29358;SDS011;16347;53.232;6.556;2023-04-24T05:28:52;5.10;;;3.50;;
29358;SDS011;16347;53.232;6.556;2023-04-24T05:31:20;5.05;;;3.45;;
29358;SDS011;16347;53.232;6.556;2023-04-24T05:33:49;4.85;;;3.63;;
29358;SDS011;16347;53.232;6.556;2023-04-24T05:36:17;6.35;;;3.63;;
29358;SDS011;16347;53.232;6.556;2023-04-24T05:38:45;5.55;;;3.70;;
29358;SDS011;16347;53.232;6.556;2023-04-24T05:41:15;4.82;;;3.08;;
29358;SDS011;16347;53.232;6.556;2023-04-24T05:43:43;5.43;;;2.70;;
29358;SDS011;16347;53.232;6.556;2023-04-24T05:46:11;4.85;;;2.70;;
29358;SDS011;16347;53.232;6.556;2023-04-24T05:48:39;4.97;;;3.05;;
29358;SDS011;16347;53.232;6.556;2023-04-24T05:51:09;4.43;;;2.80;;
29358;SDS011;16347;53.232;6.556;2023-04-24T05:53:37;6.03;;;3.10;;
29358;SDS011;16347;53.232;6.556;2023-04-24T05:56:05;4.25;;;2.63;;
29358;SDS011;16347;53.232;6.556;2023-04-24T05:58:36;8.13;;;3.17;;
29358;SDS011;16347;53.232;6.556;2023-04-24T06:01:04;3.50;;;2.55;;
29358;SDS011;16347;53.232;6.556;2023-04-24T06:03:32;4.15;;;2.75;;
29358;SDS011;16347;53.232;6.556;2023-04-24T06:06:02;8.88;;;3.00;;
29358;SDS011;16347;53.232;6.556;2023-04-24T06:08:31;5.78;;;3.58;;
29358;SDS011;16347;53.232;6.556;2023-04-24T06:11:00;4.80;;;3.65;;
29358;SDS011;16347;53.232;6.556;2023-04-24T06:13:31;3.45;;;2.90;;
29358;SDS011;16347;53.232;6.556;2023-04-24T06:16:32;5.55;;;3.33;;
29358;SDS011;16347;53.232;6.556;2023-04-24T06:19:07;3.92;;;3.22;;
29358;SDS011;16347;53.232;6.556;2023-04-24T06:21:35;6.75;;;3.65;;
29358;SDS011;16347;53.232;6.556;2023-04-24T06:24:04;7.63;;;3.47;;
29358;SDS011;16347;53.232;6.556;2023-04-24T06:26:32;7.55;;;4.50;;
29358;SDS011;16347;53.232;6.556;2023-04-24T06:29:00;6.43;;;3.97;;
29358;SDS011;16347;53.232;6.556;2023-04-24T06:31:28;6.47;;;4.43;;
29358;SDS011;16347;53.232;6.556;2023-04-24T06:33:57;10.55;;;4.53;;
29358;SDS011;16347;53.232;6.556;2023-04-24T06:36:25;4.63;;;3.40;;
29358;SDS011;16347;53.232;6.556;2023-04-24T06:38:54;4.57;;;3.55;;
29358;SDS011;16347;53.232;6.556;2023-04-24T06:41:22;4.47;;;3.38;;
29358;SDS011;16347;53.232;6.556;2023-04-24T06:43:51;12.88;;;3.70;;
29358;SDS011;16347;53.232;6.556;2023-04-24T06:46:19;7.63;;;3.83;;
29358;SDS011;16347;53.232;6.556;2023-04-24T06:48:48;6.30;;;4.00;;
29358;SDS011;16347;53.232;6.556;2023-04-24T06:51:18;9.07;;;4.05;;
29358;SDS011;16347;53.232;6.556;2023-04-24T06:53:46;10.18;;;3.67;;
29358;SDS011;16347;53.232;6.556;2023-04-24T06:56:14;4.60;;;2.80;;
29358;SDS011;16347;53.232;6.556;2023-04-24T06:58:42;5.03;;;2.70;;
29358;SDS011;16347;53.232;6.556;2023-04-24T07:01:11;7.10;;;2.13;;
29358;SDS011;16347;53.232;6.556;2023-04-24T07:03:39;8.20;;;2.13;;
29358;SDS011;16347;53.232;6.556;2023-04-24T07:06:07;3.15;;;2.03;;
29358;SDS011;16347;53.232;6.556;2023-04-24T07:08:38;4.53;;;1.88;;
29358;SDS011;16347;53.232;6.556;2023-04-24T07:11:08;3.47;;;1.75;;
29358;SDS011;16347;53.232;6.556;2023-04-24T07:13:36;2.67;;;1.73;;
29358;SDS011;16347;53.232;6.556;2023-04-24T07:16:08;4.43;;;1.52;;
29358;SDS011;16347;53.232;6.556;2023-04-24T07:18:37;4.75;;;1.73;;
29358;SDS011;16347;53.232;6.556;2023-04-24T07:21:06;3.30;;;1.45;;
29358;SDS011;16347;53.232;6.556;2023-04-24T07:23:34;4.15;;;1.40;;
29358;SDS011;16347;53.232;6.556;2023-04-24T07:26:04;7.10;;;1.75;;
29358;SDS011;16347;53.232;6.556;2023-04-24T07:28:32;3.00;;;1.58;;
29358;SDS011;16347;53.232;6.556;2023-04-24T07:31:00;6.45;;;1.58;;
29358;SDS011;16347;53.232;6.556;2023-04-24T07:33:28;3.40;;;2.13;;
29358;SDS011;16347;53.232;6.556;2023-04-24T07:35:56;6.20;;;2.28;;
29358;SDS011;16347;53.232;6.556;2023-04-24T07:38:25;10.15;;;2.72;;
29358;SDS011;16347;53.232;6.556;2023-04-24T07:40:53;5.57;;;2.45;;
29358;SDS011;16347;53.232;6.556;2023-04-24T07:43:23;5.93;;;2.40;;
29358;SDS011;16347;53.232;6.556;2023-04-24T07:45:52;8.65;;;2.72;;
29358;SDS011;16347;53.232;6.556;2023-04-24T07:48:22;3.88;;;2.00;;
29358;SDS011;16347;53.232;6.556;2023-04-24T07:50:51;5.35;;;2.13;;
29358;SDS011;16347;53.232;6.556;2023-04-24T07:53:20;4.60;;;1.73;;
29358;SDS011;16347;53.232;6.556;2023-04-24T07:55:48;5.30;;;2.45;;
29358;SDS011;16347;53.232;6.556;2023-04-24T07:58:16;9.15;;;3.17;;
29358;SDS011;16347;53.232;6.556;2023-04-24T08:00:46;9.68;;;3.75;;
29358;SDS011;16347;53.232;6.556;2023-04-24T08:03:15;9.85;;;4.45;;
29358;SDS011;16347;53.232;6.556;2023-04-24T08:05:45;11.57;;;5.93;;
29358;SDS011;16347;53.232;6.556;2023-04-24T08:08:15;14.38;;;5.40;;
29358;SDS011;16347;53.232;6.556;2023-04-24T08:10:45;14.02;;;6.18;;
29358;SDS011;16347;53.232;6.556;2023-04-24T08:13:14;17.55;;;8.55;;
29358;SDS011;16347;53.232;6.556;2023-04-24T08:15:48;21.50;;;8.60;;
29358;SDS011;16347;53.232;6.556;2023-04-24T08:18:16;23.05;;;9.77;;
29358;SDS011;16347;53.232;6.556;2023-04-24T08:20:46;21.50;;;10.52;;
29358;SDS011;16347;53.232;6.556;2023-04-24T08:23:14;27.52;;;11.65;;
29358;SDS011;16347;53.232;6.556;2023-04-24T08:25:42;22.13;;;10.38;;
29358;SDS011;16347;53.232;6.556;2023-04-24T08:28:10;21.08;;;10.23;;
29358;SDS011;16347;53.232;6.556;2023-04-24T08:30:40;30.45;;;12.05;;
29358;SDS011;16347;53.232;6.556;2023-04-24T08:33:09;27.10;;;11.90;;
29358;SDS011;16347;53.232;6.556;2023-04-24T08:35:37;24.98;;;10.95;;
29358;SDS011;16347;53.232;6.556;2023-04-24T08:38:05;24.63;;;11.38;;
29358;SDS011;16347;53.232;6.556;2023-04-24T08:40:34;32.60;;;10.90;;
29358;SDS011;16347;53.232;6.556;2023-04-24T08:43:02;23.77;;;10.05;;
29358;SDS011;16347;53.232;6.556;2023-04-24T08:45:31;20.35;;;9.95;;
29358;SDS011;16347;53.232;6.556;2023-04-24T08:48:01;18.83;;;9.32;;
29358;SDS011;16347;53.232;6.556;2023-04-24T08:50:43;20.13;;;8.73;;
29358;SDS011;16347;53.232;6.556;2023-04-24T08:53:11;19.33;;;7.97;;
29358;SDS011;16347;53.232;6.556;2023-04-24T08:55:40;23.48;;;9.35;;
29358;SDS011;16347;53.232;6.556;2023-04-24T08:58:11;25.30;;;9.15;;
29358;SDS011;16347;53.232;6.556;2023-04-24T09:00:40;15.18;;;7.45;;
29358;SDS011;16347;53.232;6.556;2023-04-24T09:03:13;17.95;;;8.93;;
29358;SDS011;16347;53.232;6.556;2023-04-24T09:05:47;19.08;;;8.55;;
29358;SDS011;16347;53.232;6.556;2023-04-24T09:08:17;17.95;;;9.45;;
29358;SDS011;16347;53.232;6.556;2023-04-24T09:10:46;21.75;;;10.20;;
29358;SDS011;16347;53.232;6.556;2023-04-24T09:13:16;27.05;;;11.32;;
29358;SDS011;16347;53.232;6.556;2023-04-24T09:15:46;21.95;;;9.88;;
29358;SDS011;16347;53.232;6.556;2023-04-24T09:18:14;20.30;;;9.95;;
29358;SDS011;16347;53.232;6.556;2023-04-24T09:20:59;15.80;;;9.05;;
29358;SDS011;16347;53.232;6.556;2023-04-24T09:23:29;15.23;;;8.00;;
29358;SDS011;16347;53.232;6.556;2023-04-24T09:25:58;14.77;;;7.78;;
29358;SDS011;16347;53.232;6.556;2023-04-24T09:28:30;12.73;;;7.25;;
29358;SDS011;16347;53.232;6.556;2023-04-24T09:31:03;16.50;;;6.55;;
29358;SDS011;16347;53.232;6.556;2023-04-24T09:33:32;11.52;;;5.93;;
29358;SDS011;16347;53.232;6.556;2023-04-24T09:36:02;15.25;;;5.78;;
29358;SDS011;16347;53.232;6.556;2023-04-24T09:38:30;18.80;;;6.05;;
29358;SDS011;16347;53.232;6.556;2023-04-24T09:41:00;16.60;;;6.35;;
29358;SDS011;16347;53.232;6.556;2023-04-24T09:43:30;15.55;;;6.32;;
29358;SDS011;16347;53.232;6.556;2023-04-24T09:45:59;19.42;;;6.63;;
29358;SDS011;16347;53.232;6.556;2023-04-24T09:48:33;23.27;;;6.13;;
29358;SDS011;16347;53.232;6.556;2023-04-24T09:51:05;23.63;;;7.03;;
29358;SDS011;16347;53.232;6.556;2023-04-24T09:53:36;22.40;;;6.05;;
29358;SDS011;16347;53.232;6.556;2023-04-24T09:56:09;15.93;;;5.20;;
29358;SDS011;16347;53.232;6.556;2023-04-24T09:58:39;20.10;;;5.47;;
29358;SDS011;16347;53.232;6.556;2023-04-24T10:01:07;19.42;;;5.22;;
29358;SDS011;16347;53.232;6.556;2023-04-24T10:03:35;8.80;;;4.10;;
29358;SDS011;16347;53.232;6.556;2023-04-24T10:06:07;9.80;;;4.13;;
29358;SDS011;16347;53.232;6.556;2023-04-24T10:08:40;16.90;;;4.50;;
29358;SDS011;16347;53.232;6.556;2023-04-24T10:11:08;9.93;;;3.70;;
29358;SDS011;16347;53.232;6.556;2023-04-24T10:13:37;14.50;;;3.33;;
29358;SDS011;16347;53.232;6.556;2023-04-24T10:16:07;13.93;;;3.88;;
29358;SDS011;16347;53.232;6.556;2023-04-24T10:18:35;9.63;;;2.90;;
29358;SDS011;16347;53.232;6.556;2023-04-24T10:21:04;9.55;;;2.63;;
29358;SDS011;16347;53.232;6.556;2023-04-24T10:23:34;12.52;;;3.35;;
29358;SDS011;16347;53.232;6.556;2023-04-24T10:26:03;14.52;;;3.53;;
29358;SDS011;16347;53.232;6.556;2023-04-24T10:28:31;9.02;;;3.22;;
29358;SDS011;16347;53.232;6.556;2023-04-24T10:31:01;12.02;;;2.90;;
29358;SDS011;16347;53.232;6.556;2023-04-24T10:33:29;10.20;;;3.00;;
29358;SDS011;16347;53.232;6.556;2023-04-24T10:35:58;10.07;;;3.10;;
29358;SDS011;16347;53.232;6.556;2023-04-24T10:38:27;9.95;;;2.45;;
29358;SDS011;16347;53.232;6.556;2023-04-24T10:40:58;6.57;;;2.75;;
29358;SDS011;16347;53.232;6.556;2023-04-24T10:43:35;18.77;;;2.80;;
29358;SDS011;16347;53.232;6.556;2023-04-24T10:46:04;7.50;;;2.53;;
29358;SDS011;16347;53.232;6.556;2023-04-24T10:48:35;13.65;;;3.20;;
29358;SDS011;16347;53.232;6.556;2023-04-24T10:51:11;12.27;;;2.50;;
29358;SDS011;16347;53.232;6.556;2023-04-24T10:53:40;13.48;;;2.53;;
29358;SDS011;16347;53.232;6.556;2023-04-24T10:56:10;15.60;;;3.15;;
29358;SDS011;16347;53.232;6.556;2023-04-24T10:58:39;6.45;;;2.40;;
29358;SDS011;16347;53.232;6.556;2023-04-24T11:01:22;9.03;;;3.00;;
29358;SDS011;16347;53.232;6.556;2023-04-24T11:03:54;9.93;;;2.60;;
29358;SDS011;16347;53.232;6.556;2023-04-24T11:06:29;13.27;;;2.50;;
29358;SDS011;16347;53.232;6.556;2023-04-24T11:09:01;12.18;;;2.40;;
29358;SDS011;16347;53.232;6.556;2023-04-24T11:11:33;10.27;;;2.28;;
29358;SDS011;16347;53.232;6.556;2023-04-24T11:14:04;13.40;;;2.78;;
29358;SDS011;16347;53.232;6.556;2023-04-24T11:16:34;14.07;;;1.98;;
29358;SDS011;16347;53.232;6.556;2023-04-24T11:19:06;10.18;;;2.55;;
29358;SDS011;16347;53.232;6.556;2023-04-24T11:21:39;9.57;;;2.10;;
29358;SDS011;16347;53.232;6.556;2023-04-24T11:24:22;9.95;;;2.28;;
29358;SDS011;16347;53.232;6.556;2023-04-24T11:26:57;10.27;;;1.83;;
29358;SDS011;16347;53.232;6.556;2023-04-24T11:29:40;15.73;;;2.45;;
29358;SDS011;16347;53.232;6.556;2023-04-24T11:32:17;9.55;;;2.40;;
29358;SDS011;16347;53.232;6.556;2023-04-24T11:34:47;9.20;;;2.70;;
29358;SDS011;16347;53.232;6.556;2023-04-24T11:37:16;17.73;;;2.35;;
29358;SDS011;16347;53.232;6.556;2023-04-24T11:39:44;17.38;;;2.55;;
29358;SDS011;16347;53.232;6.556;2023-04-24T11:42:15;14.52;;;1.95;;
29358;SDS011;16347;53.232;6.556;2023-04-24T11:44:43;10.48;;;2.20;;
29358;SDS011;16347;53.232;6.556;2023-04-24T11:47:14;11.43;;;1.85;;
29358;SDS011;16347;53.232;6.556;2023-04-24T11:49:42;11.57;;;1.90;;
29358;SDS011;16347;53.232;6.556;2023-04-24T11:52:10;11.25;;;1.60;;
29358;SDS011;16347;53.232;6.556;2023-04-24T11:54:38;10.38;;;1.98;;
29358;SDS011;16347;53.232;6.556;2023-04-24T11:57:16;9.18;;;1.70;;
29358;SDS011;16347;53.232;6.556;2023-04-24T11:59:48;13.40;;;2.05;;
29358;SDS011;16347;53.232;6.556;2023-04-24T12:02:22;8.75;;;1.88;;
29358;SDS011;16347;53.232;6.556;2023-04-24T12:04:52;13.27;;;1.90;;
29358;SDS011;16347;53.232;6.556;2023-04-24T12:07:22;9.98;;;1.98;;
29358;SDS011;16347;53.232;6.556;2023-04-24T12:09:55;10.85;;;2.13;;
29358;SDS011;16347;53.232;6.556;2023-04-24T12:12:26;13.07;;;1.85;;
29358;SDS011;16347;53.232;6.556;2023-04-24T12:14:56;4.60;;;1.95;;
29358;SDS011;16347;53.232;6.556;2023-04-24T12:17:26;7.97;;;1.92;;
29358;SDS011;16347;53.232;6.556;2023-04-24T12:19:58;9.95;;;1.77;;
29358;SDS011;16347;53.232;6.556;2023-04-24T12:22:36;5.75;;;2.20;;
29358;SDS011;16347;53.232;6.556;2023-04-24T12:25:12;9.02;;;1.67;;
29358;SDS011;16347;53.232;6.556;2023-04-24T12:27:42;8.60;;;1.77;;
29358;SDS011;16347;53.232;6.556;2023-04-24T12:30:11;4.65;;;1.90;;
29358;SDS011;16347;53.232;6.556;2023-04-24T12:32:41;12.95;;;2.15;;
29358;SDS011;16347;53.232;6.556;2023-04-24T12:35:10;7.93;;;1.27;;
29358;SDS011;16347;53.232;6.556;2023-04-24T12:37:41;4.13;;;1.13;;
29358;SDS011;16347;53.232;6.556;2023-04-24T12:40:13;9.05;;;1.42;;
29358;SDS011;16347;53.232;6.556;2023-04-24T12:42:43;4.40;;;1.35;;
29358;SDS011;16347;53.232;6.556;2023-04-24T12:45:12;7.53;;;1.38;;
29358;SDS011;16347;53.232;6.556;2023-04-24T12:47:41;7.60;;;1.42;;
29358;SDS011;16347;53.232;6.556;2023-04-24T12:50:10;9.70;;;1.38;;
29358;SDS011;16347;53.232;6.556;2023-04-24T12:52:40;4.13;;;0.90;;
29358;SDS011;16347;53.232;6.556;2023-04-24T12:55:08;7.82;;;1.27;;
29358;SDS011;16347;53.232;6.556;2023-04-24T12:57:38;7.35;;;1.60;;
29358;SDS011;16347;53.232;6.556;2023-04-24T13:00:09;9.25;;;1.38;;
29358;SDS011;16347;53.232;6.556;2023-04-24T13:02:37;8.00;;;1.33;;
29358;SDS011;16347;53.232;6.556;2023-04-24T13:05:06;10.98;;;1.38;;
29358;SDS011;16347;53.232;6.556;2023-04-24T13:07:35;8.40;;;1.30;;
29358;SDS011;16347;53.232;6.556;2023-04-24T13:10:03;3.40;;;0.77;;
29358;SDS011;16347;53.232;6.556;2023-04-24T13:12:31;7.50;;;1.23;;
29358;SDS011;16347;53.232;6.556;2023-04-24T13:14:59;7.07;;;1.08;;
29358;SDS011;16347;53.232;6.556;2023-04-24T13:17:28;9.80;;;1.33;;
29358;SDS011;16347;53.232;6.556;2023-04-24T13:19:56;5.22;;;1.15;;
29358;SDS011;16347;53.232;6.556;2023-04-24T13:22:24;6.40;;;1.25;;
29358;SDS011;16347;53.232;6.556;2023-04-24T13:24:53;8.13;;;1.13;;
29358;SDS011;16347;53.232;6.556;2023-04-24T13:27:22;8.85;;;0.93;;
29358;SDS011;16347;53.232;6.556;2023-04-24T13:29:50;7.47;;;1.00;;
29358;SDS011;16347;53.232;6.556;2023-04-24T13:32:18;9.00;;;1.98;;
29358;SDS011;16347;53.232;6.556;2023-04-24T13:34:48;12.98;;;1.67;;
29358;SDS011;16347;53.232;6.556;2023-04-24T13:37:16;7.60;;;1.20;;
29358;SDS011;16347;53.232;6.556;2023-04-24T13:39:44;8.50;;;1.10;;
29358;SDS011;16347;53.232;6.556;2023-04-24T13:42:11;5.60;;;0.88;;
29358;SDS011;16347;53.232;6.556;2023-04-24T13:44:40;7.25;;;0.75;;
29358;SDS011;16347;53.232;6.556;2023-04-24T13:47:08;2.70;;;0.70;;
29358;SDS011;16347;53.232;6.556;2023-04-24T13:49:36;6.07;;;0.80;;
29358;SDS011;16347;53.232;6.556;2023-04-24T13:52:05;9.48;;;1.25;;
29358;SDS011;16347;53.232;6.556;2023-04-24T13:54:33;10.75;;;1.00;;
29358;SDS011;16347;53.232;6.556;2023-04-24T13:57:01;4.55;;;0.75;;
29358;SDS011;16347;53.232;6.556;2023-04-24T13:59:30;8.65;;;1.25;;
29358;SDS011;16347;53.232;6.556;2023-04-24T14:01:58;9.38;;;0.90;;
29358;SDS011;16347;53.232;6.556;2023-04-24T14:04:26;6.53;;;1.00;;
29358;SDS011;16347;53.232;6.556;2023-04-24T14:06:54;7.45;;;1.63;;
29358;SDS011;16347;53.232;6.556;2023-04-24T14:09:23;6.75;;;1.60;;
29358;SDS011;16347;53.232;6.556;2023-04-24T14:11:52;12.27;;;2.83;;
29358;SDS011;16347;53.232;6.556;2023-04-24T14:14:20;5.97;;;1.55;;
29358;SDS011;16347;53.232;6.556;2023-04-24T14:16:48;14.80;;;2.08;;
29358;SDS011;16347;53.232;6.556;2023-04-24T14:19:16;11.57;;;2.20;;
29358;SDS011;16347;53.232;6.556;2023-04-24T14:21:43;10.18;;;1.85;;
29358;SDS011;16347;53.232;6.556;2023-04-24T14:24:12;11.77;;;2.30;;
29358;SDS011;16347;53.232;6.556;2023-04-24T14:26:41;10.73;;;2.30;;
29358;SDS011;16347;53.232;6.556;2023-04-24T14:29:09;14.13;;;2.92;;
29358;SDS011;16347;53.232;6.556;2023-04-24T14:31:40;11.02;;;1.95;;
29358;SDS011;16347;53.232;6.556;2023-04-24T14:34:08;13.68;;;2.60;;
29358;SDS011;16347;53.232;6.556;2023-04-24T14:36:36;10.10;;;1.73;;
29358;SDS011;16347;53.232;6.556;2023-04-24T14:39:05;9.70;;;2.17;;
29358;SDS011;16347;53.232;6.556;2023-04-24T14:41:34;13.38;;;2.63;;
29358;SDS011;16347;53.232;6.556;2023-04-24T14:44:03;17.45;;;2.58;;
29358;SDS011;16347;53.232;6.556;2023-04-24T14:46:32;8.18;;;1.85;;
29358;SDS011;16347;53.232;6.556;2023-04-24T14:49:00;10.50;;;2.53;;
29358;SDS011;16347;53.232;6.556;2023-04-24T14:51:28;13.80;;;2.38;;
29358;SDS011;16347;53.232;6.556;2023-04-24T14:53:56;12.30;;;2.25;;
29358;SDS011;16347;53.232;6.556;2023-04-24T14:56:25;13.23;;;2.08;;
29358;SDS011;16347;53.232;6.556;2023-04-24T14:58:53;10.40;;;1.77;;
29358;SDS011;16347;53.232;6.556;2023-04-24T15:01:23;11.57;;;1.88;;